sensor_id;sensor_type;location;lat;lon;timestamp;P1;durP1;ratioP1;P2;durP2;ratioP2
66012;SDS011;52783;50.502;8.190;2023-01-20T00:01:30;12.52;;;7.88;;
66012;SDS011;52783;50.502;8.190;2023-01-20T00:03:56;19.42;;;8.18;;
66012;SDS011;52783;50.502;8.190;2023-01-20T00:06:22;11.93;;;7.18;;
66012;SDS011;52783;50.502;8.190;2023-01-20T00:08:51;13.95;;;7.32;;
66012;SDS011;52783;50.502;8.190;2023-01-20T00:11:18;18.70;;;6.50;;
66012;SDS011;52783;50.502;8.190;2023-01-20T00:13:44;14.93;;;7.15;;
66012;SDS011;52783;50.502;8.190;2023-01-20T00:16:10;14.20;;;8.00;;
66012;SDS011;52783;50.502;8.190;2023-01-20T00:18:36;15.32;;;7.32;;
66012;SDS011;52783;50.502;8.190;2023-01-20T00:21:07;18.75;;;7.60;;
66012;SDS011;52783;50.502;8.190;2023-01-20T00:23:34;14.25;;;7.45;;
66012;SDS011;52783;50.502;8.190;2023-01-20T00:26:04;18.10;;;7.30;;
66012;SDS011;52783;50.502;8.190;2023-01-20T00:28:31;12.88;;;7.95;;
66012;SDS011;52783;50.502;8.190;2023-01-20T00:30:57;23.40;;;8.63;;
66012;SDS011;52783;50.502;8.190;2023-01-20T00:33:23;13.65;;;8.30;;
66012;SDS011;52783;50.502;8.190;2023-01-20T00:35:48;13.52;;;7.40;;
66012;SDS011;52783;50.502;8.190;2023-01-20T00:38:14;13.88;;;7.38;;
66012;SDS011;52783;50.502;8.190;2023-01-20T00:40:39;9.95;;;5.97;;
66012;SDS011;52783;50.502;8.190;2023-01-20T00:43:05;12.35;;;7.30;;
66012;SDS011;52783;50.502;8.190;2023-01-20T00:45:30;15.88;;;8.20;;
66012;SDS011;52783;50.502;8.190;2023-01-20T00:47:56;15.77;;;8.05;;
66012;SDS011;52783;50.502;8.190;2023-01-20T00:50:21;12.60;;;6.85;;
66012;SDS011;52783;50.502;8.190;2023-01-20T00:52:47;15.48;;;8.25;;
66012;SDS011;52783;50.502;8.190;2023-01-20T00:55:12;15.23;;;8.70;;
66012;SDS011;52783;50.502;8.190;2023-01-20T00:57:38;18.40;;;8.60;;
66012;SDS011;52783;50.502;8.190;2023-01-20T01:00:04;16.85;;;7.10;;
66012;SDS011;52783;50.502;8.190;2023-01-20T01:02:30;12.68;;;7.05;;
66012;SDS011;52783;50.502;8.190;2023-01-20T01:04:55;14.65;;;8.38;;
66012;SDS011;52783;50.502;8.190;2023-01-20T01:07:21;14.90;;;8.25;;
66012;SDS011;52783;50.502;8.190;2023-01-20T01:09:46;16.08;;;8.73;;
66012;SDS011;52783;50.502;8.190;2023-01-20T01:12:11;16.00;;;8.40;;
66012;SDS011;52783;50.502;8.190;2023-01-20T01:14:37;13.95;;;8.38;;
66012;SDS011;52783;50.502;8.190;2023-01-20T01:17:03;14.90;;;8.00;;
66012;SDS011;52783;50.502;8.190;2023-01-20T01:19:28;14.63;;;7.50;;
66012;SDS011;52783;50.502;8.190;2023-01-20T01:21:54;16.77;;;8.77;;
66012;SDS011;52783;50.502;8.190;2023-01-20T01:24:19;13.43;;;8.10;;
66012;SDS011;52783;50.502;8.190;2023-01-20T01:26:45;16.80;;;7.15;;
66012;SDS011;52783;50.502;8.190;2023-01-20T01:29:10;9.88;;;6.70;;
66012;SDS011;52783;50.502;8.190;2023-01-20T01:31:36;12.30;;;7.40;;
66012;SDS011;52783;50.502;8.190;2023-01-20T01:34:02;13.30;;;7.25;;
66012;SDS011;52783;50.502;8.190;2023-01-20T01:36:28;20.98;;;9.05;;
66012;SDS011;52783;50.502;8.190;2023-01-20T01:38:53;13.88;;;7.93;;
66012;SDS011;52783;50.502;8.190;2023-01-20T01:41:19;18.85;;;10.50;;
66012;SDS011;52783;50.502;8.190;2023-01-20T01:44:01;20.88;;;10.30;;
66012;SDS011;52783;50.502;8.190;2023-01-20T01:46:35;15.75;;;9.75;;
66012;SDS011;52783;50.502;8.190;2023-01-20T01:49:24;16.45;;;9.35;;
66012;SDS011;52783;50.502;8.190;2023-01-20T01:52:02;17.15;;;9.15;;
66012;SDS011;52783;50.502;8.190;2023-01-20T01:54:34;19.48;;;8.80;;
66012;SDS011;52783;50.502;8.190;2023-01-20T01:57:02;20.15;;;9.57;;
66012;SDS011;52783;50.502;8.190;2023-01-20T01:59:30;17.67;;;9.57;;
66012;SDS011;52783;50.502;8.190;2023-01-20T02:01:55;14.73;;;8.60;;
66012;SDS011;52783;50.502;8.190;2023-01-20T02:04:22;14.70;;;8.77;;
66012;SDS011;52783;50.502;8.190;2023-01-20T02:06:50;19.95;;;9.05;;
66012;SDS011;52783;50.502;8.190;2023-01-20T02:09:21;13.02;;;7.60;;
66012;SDS011;52783;50.502;8.190;2023-01-20T02:11:53;16.00;;;8.70;;
66012;SDS011;52783;50.502;8.190;2023-01-20T02:14:23;14.38;;;7.72;;
66012;SDS011;52783;50.502;8.190;2023-01-20T02:16:58;13.85;;;8.27;;
66012;SDS011;52783;50.502;8.190;2023-01-20T02:33:30;16.13;;;8.13;;
66012;SDS011;52783;50.502;8.190;2023-01-20T02:36:05;14.30;;;8.00;;
66012;SDS011;52783;50.502;8.190;2023-01-20T02:47:34;22.23;;;9.32;;
66012;SDS011;52783;50.502;8.190;2023-01-20T02:50:10;20.48;;;9.40;;
66012;SDS011;52783;50.502;8.190;2023-01-20T02:52:41;18.90;;;9.35;;
66012;SDS011;52783;50.502;8.190;2023-01-20T02:55:10;19.40;;;9.63;;
66012;SDS011;52783;50.502;8.190;2023-01-20T02:57:44;18.23;;;9.73;;
66012;SDS011;52783;50.502;8.190;2023-01-20T03:00:16;19.13;;;9.40;;
66012;SDS011;52783;50.502;8.190;2023-01-20T03:02:47;22.38;;;8.82;;
66012;SDS011;52783;50.502;8.190;2023-01-20T03:05:18;15.45;;;8.52;;
66012;SDS011;52783;50.502;8.190;2023-01-20T03:07:47;16.77;;;9.68;;
66012;SDS011;52783;50.502;8.190;2023-01-20T03:10:15;15.10;;;8.98;;
66012;SDS011;52783;50.502;8.190;2023-01-20T03:12:51;20.40;;;9.02;;
66012;SDS011;52783;50.502;8.190;2023-01-20T03:15:21;16.55;;;9.07;;
66012;SDS011;52783;50.502;8.190;2023-01-20T03:18:00;20.92;;;8.80;;
66012;SDS011;52783;50.502;8.190;2023-01-20T03:20:26;18.00;;;8.82;;
66012;SDS011;52783;50.502;8.190;2023-01-20T03:22:51;18.20;;;10.38;;
66012;SDS011;52783;50.502;8.190;2023-01-20T03:25:17;15.40;;;9.50;;
66012;SDS011;52783;50.502;8.190;2023-01-20T03:27:44;21.58;;;10.48;;
66012;SDS011;52783;50.502;8.190;2023-01-20T03:30:13;21.92;;;9.73;;
66012;SDS011;52783;50.502;8.190;2023-01-20T03:32:42;17.33;;;9.90;;
66012;SDS011;52783;50.502;8.190;2023-01-20T03:35:11;21.35;;;10.25;;
66012;SDS011;52783;50.502;8.190;2023-01-20T03:37:39;20.77;;;9.55;;
66012;SDS011;52783;50.502;8.190;2023-01-20T03:40:06;18.10;;;9.38;;
66012;SDS011;52783;50.502;8.190;2023-01-20T03:42:40;18.13;;;9.95;;
66012;SDS011;52783;50.502;8.190;2023-01-20T03:45:16;21.58;;;9.55;;
66012;SDS011;52783;50.502;8.190;2023-01-20T03:50:39;18.58;;;10.00;;
66012;SDS011;52783;50.502;8.190;2023-01-20T03:53:25;17.58;;;9.45;;
66012;SDS011;52783;50.502;8.190;2023-01-20T03:55:55;20.85;;;9.90;;
66012;SDS011;52783;50.502;8.190;2023-01-20T03:58:35;22.63;;;10.30;;
66012;SDS011;52783;50.502;8.190;2023-01-20T04:01:05;18.88;;;9.95;;
66012;SDS011;52783;50.502;8.190;2023-01-20T04:03:34;19.35;;;10.60;;
66012;SDS011;52783;50.502;8.190;2023-01-20T04:06:04;17.52;;;10.10;;
66012;SDS011;52783;50.502;8.190;2023-01-20T04:08:33;23.80;;;11.60;;
66012;SDS011;52783;50.502;8.190;2023-01-20T04:11:03;18.02;;;10.88;;
66012;SDS011;52783;50.502;8.190;2023-01-20T04:13:30;16.67;;;10.13;;
66012;SDS011;52783;50.502;8.190;2023-01-20T04:15:56;19.20;;;11.15;;
66012;SDS011;52783;50.502;8.190;2023-01-20T04:18:23;17.10;;;10.23;;
66012;SDS011;52783;50.502;8.190;2023-01-20T04:20:50;21.35;;;9.85;;
66012;SDS011;52783;50.502;8.190;2023-01-20T04:23:39;23.57;;;11.93;;
66012;SDS011;52783;50.502;8.190;2023-01-20T04:26:10;20.38;;;10.68;;
66012;SDS011;52783;50.502;8.190;2023-01-20T04:28:35;18.27;;;10.20;;
66012;SDS011;52783;50.502;8.190;2023-01-20T04:31:01;25.10;;;11.25;;
66012;SDS011;52783;50.502;8.190;2023-01-20T04:33:26;31.38;;;11.73;;
66012;SDS011;52783;50.502;8.190;2023-01-20T04:35:52;23.60;;;11.45;;
66012;SDS011;52783;50.502;8.190;2023-01-20T04:38:17;24.60;;;12.55;;
66012;SDS011;52783;50.502;8.190;2023-01-20T04:40:43;26.40;;;12.32;;
66012;SDS011;52783;50.502;8.190;2023-01-20T04:43:08;28.50;;;14.38;;
66012;SDS011;52783;50.502;8.190;2023-01-20T04:45:36;51.63;;;19.27;;
66012;SDS011;52783;50.502;8.190;2023-01-20T04:48:04;39.30;;;12.43;;
66012;SDS011;52783;50.502;8.190;2023-01-20T04:50:31;36.35;;;14.20;;
66012;SDS011;52783;50.502;8.190;2023-01-20T04:52:56;36.83;;;12.93;;
66012;SDS011;52783;50.502;8.190;2023-01-20T04:55:22;34.85;;;13.73;;
66012;SDS011;52783;50.502;8.190;2023-01-20T04:57:48;49.33;;;14.05;;
66012;SDS011;52783;50.502;8.190;2023-01-20T05:00:13;68.35;;;19.40;;
66012;SDS011;52783;50.502;8.190;2023-01-20T05:02:43;77.88;;;20.75;;
66012;SDS011;52783;50.502;8.190;2023-01-20T05:05:09;69.47;;;20.25;;
66012;SDS011;52783;50.502;8.190;2023-01-20T05:07:35;58.70;;;19.80;;
66012;SDS011;52783;50.502;8.190;2023-01-20T05:10:00;41.80;;;14.45;;
66012;SDS011;52783;50.502;8.190;2023-01-20T05:12:26;50.47;;;14.93;;
66012;SDS011;52783;50.502;8.190;2023-01-20T05:14:52;36.47;;;14.95;;
66012;SDS011;52783;50.502;8.190;2023-01-20T05:17:17;25.77;;;13.20;;
66012;SDS011;52783;50.502;8.190;2023-01-20T05:19:43;78.25;;;12.82;;
66012;SDS011;52783;50.502;8.190;2023-01-20T05:22:08;66.40;;;12.88;;
66012;SDS011;52783;50.502;8.190;2023-01-20T05:24:34;49.55;;;13.45;;
66012;SDS011;52783;50.502;8.190;2023-01-20T05:27:00;35.10;;;11.00;;
66012;SDS011;52783;50.502;8.190;2023-01-20T05:29:26;51.58;;;14.43;;
66012;SDS011;52783;50.502;8.190;2023-01-20T05:31:52;40.05;;;14.43;;
66012;SDS011;52783;50.502;8.190;2023-01-20T05:34:18;61.30;;;14.90;;
66012;SDS011;52783;50.502;8.190;2023-01-20T05:36:43;77.45;;;14.43;;
66012;SDS011;52783;50.502;8.190;2023-01-20T05:39:09;60.92;;;14.38;;
66012;SDS011;52783;50.502;8.190;2023-01-20T05:41:35;62.75;;;13.95;;
66012;SDS011;52783;50.502;8.190;2023-01-20T05:44:00;74.78;;;11.65;;
66012;SDS011;52783;50.502;8.190;2023-01-20T05:46:26;33.53;;;11.98;;
66012;SDS011;52783;50.502;8.190;2023-01-20T05:48:51;57.55;;;13.57;;
66012;SDS011;52783;50.502;8.190;2023-01-20T05:51:17;44.08;;;12.57;;
66012;SDS011;52783;50.502;8.190;2023-01-20T05:53:43;58.53;;;12.63;;
66012;SDS011;52783;50.502;8.190;2023-01-20T05:56:08;69.95;;;17.13;;
66012;SDS011;52783;50.502;8.190;2023-01-20T05:58:36;46.60;;;14.40;;
66012;SDS011;52783;50.502;8.190;2023-01-20T06:01:02;32.03;;;13.82;;
66012;SDS011;52783;50.502;8.190;2023-01-20T06:03:29;29.20;;;14.88;;
66012;SDS011;52783;50.502;8.190;2023-01-20T06:05:59;41.22;;;17.35;;
66012;SDS011;52783;50.502;8.190;2023-01-20T06:08:25;31.17;;;14.05;;
66012;SDS011;52783;50.502;8.190;2023-01-20T06:10:51;37.22;;;15.43;;
66012;SDS011;52783;50.502;8.190;2023-01-20T06:13:18;39.58;;;14.73;;
66012;SDS011;52783;50.502;8.190;2023-01-20T06:15:43;37.63;;;16.23;;
66012;SDS011;52783;50.502;8.190;2023-01-20T06:18:09;20.15;;;12.85;;
66012;SDS011;52783;50.502;8.190;2023-01-20T06:20:37;24.17;;;12.75;;
66012;SDS011;52783;50.502;8.190;2023-01-20T06:23:03;18.60;;;11.45;;
66012;SDS011;52783;50.502;8.190;2023-01-20T06:25:28;24.77;;;14.05;;
66012;SDS011;52783;50.502;8.190;2023-01-20T06:27:54;32.10;;;12.10;;
66012;SDS011;52783;50.502;8.190;2023-01-20T06:30:19;21.83;;;10.38;;
66012;SDS011;52783;50.502;8.190;2023-01-20T06:32:45;27.20;;;11.85;;
66012;SDS011;52783;50.502;8.190;2023-01-20T06:35:12;20.77;;;11.40;;
66012;SDS011;52783;50.502;8.190;2023-01-20T06:37:38;29.80;;;11.20;;
66012;SDS011;52783;50.502;8.190;2023-01-20T06:40:03;25.30;;;11.50;;
66012;SDS011;52783;50.502;8.190;2023-01-20T06:42:30;33.95;;;13.43;;
66012;SDS011;52783;50.502;8.190;2023-01-20T06:44:56;26.55;;;12.57;;
66012;SDS011;52783;50.502;8.190;2023-01-20T06:47:21;25.20;;;11.13;;
66012;SDS011;52783;50.502;8.190;2023-01-20T06:49:47;22.92;;;11.20;;
66012;SDS011;52783;50.502;8.190;2023-01-20T06:52:12;27.15;;;12.05;;
66012;SDS011;52783;50.502;8.190;2023-01-20T06:54:38;18.23;;;11.43;;
66012;SDS011;52783;50.502;8.190;2023-01-20T06:57:04;22.80;;;12.10;;
66012;SDS011;52783;50.502;8.190;2023-01-20T06:59:29;24.77;;;11.18;;
66012;SDS011;52783;50.502;8.190;2023-01-20T07:01:55;24.52;;;12.13;;
66012;SDS011;52783;50.502;8.190;2023-01-20T07:04:21;33.80;;;12.60;;
66012;SDS011;52783;50.502;8.190;2023-01-20T07:06:46;20.08;;;11.65;;
66012;SDS011;52783;50.502;8.190;2023-01-20T07:09:12;24.17;;;12.80;;
66012;SDS011;52783;50.502;8.190;2023-01-20T07:11:38;32.88;;;13.95;;
66012;SDS011;52783;50.502;8.190;2023-01-20T07:14:04;24.13;;;12.45;;
66012;SDS011;52783;50.502;8.190;2023-01-20T07:16:30;33.65;;;13.85;;
66012;SDS011;52783;50.502;8.190;2023-01-20T07:18:56;23.70;;;12.32;;
66012;SDS011;52783;50.502;8.190;2023-01-20T07:21:22;25.45;;;12.70;;
66012;SDS011;52783;50.502;8.190;2023-01-20T07:23:48;24.50;;;12.60;;
66012;SDS011;52783;50.502;8.190;2023-01-20T07:26:15;27.38;;;12.15;;
66012;SDS011;52783;50.502;8.190;2023-01-20T07:28:43;26.13;;;11.13;;
66012;SDS011;52783;50.502;8.190;2023-01-20T07:31:12;27.50;;;12.02;;
66012;SDS011;52783;50.502;8.190;2023-01-20T07:33:39;29.75;;;14.07;;
66012;SDS011;52783;50.502;8.190;2023-01-20T07:36:05;21.73;;;10.38;;
66012;SDS011;52783;50.502;8.190;2023-01-20T07:38:32;18.33;;;10.68;;
66012;SDS011;52783;50.502;8.190;2023-01-20T07:40:58;22.98;;;11.77;;
66012;SDS011;52783;50.502;8.190;2023-01-20T07:43:24;36.45;;;15.23;;
66012;SDS011;52783;50.502;8.190;2023-01-20T07:45:54;40.05;;;18.15;;
66012;SDS011;52783;50.502;8.190;2023-01-20T07:48:20;38.17;;;16.40;;
66012;SDS011;52783;50.502;8.190;2023-01-20T07:50:46;31.17;;;15.65;;
66012;SDS011;52783;50.502;8.190;2023-01-20T07:53:11;26.02;;;12.70;;
66012;SDS011;52783;50.502;8.190;2023-01-20T07:55:37;29.63;;;13.73;;
66012;SDS011;52783;50.502;8.190;2023-01-20T07:58:02;29.67;;;13.85;;
66012;SDS011;52783;50.502;8.190;2023-01-20T08:00:28;23.98;;;12.85;;
66012;SDS011;52783;50.502;8.190;2023-01-20T08:02:53;16.85;;;11.13;;
66012;SDS011;52783;50.502;8.190;2023-01-20T08:05:19;23.63;;;11.98;;
66012;SDS011;52783;50.502;8.190;2023-01-20T08:07:48;29.98;;;13.73;;
66012;SDS011;52783;50.502;8.190;2023-01-20T08:10:14;26.17;;;14.43;;
66012;SDS011;52783;50.502;8.190;2023-01-20T08:12:40;19.45;;;10.73;;
66012;SDS011;52783;50.502;8.190;2023-01-20T08:15:06;23.30;;;12.75;;
66012;SDS011;52783;50.502;8.190;2023-01-20T08:17:32;18.05;;;10.63;;
66012;SDS011;52783;50.502;8.190;2023-01-20T08:19:58;24.48;;;11.38;;
66012;SDS011;52783;50.502;8.190;2023-01-20T08:22:23;16.98;;;9.15;;
66012;SDS011;52783;50.502;8.190;2023-01-20T08:24:49;18.20;;;10.05;;
66012;SDS011;52783;50.502;8.190;2023-01-20T08:27:15;17.52;;;8.95;;
66012;SDS011;52783;50.502;8.190;2023-01-20T08:29:41;16.20;;;7.72;;
66012;SDS011;52783;50.502;8.190;2023-01-20T08:32:06;12.80;;;8.52;;
66012;SDS011;52783;50.502;8.190;2023-01-20T08:34:33;18.25;;;9.65;;
66012;SDS011;52783;50.502;8.190;2023-01-20T08:36:59;19.40;;;9.27;;
66012;SDS011;52783;50.502;8.190;2023-01-20T08:39:24;13.93;;;9.90;;
66012;SDS011;52783;50.502;8.190;2023-01-20T08:41:50;21.75;;;10.75;;
66012;SDS011;52783;50.502;8.190;2023-01-20T08:44:16;37.50;;;14.27;;
66012;SDS011;52783;50.502;8.190;2023-01-20T08:46:42;29.48;;;16.95;;
66012;SDS011;52783;50.502;8.190;2023-01-20T08:49:09;32.95;;;17.27;;
66012;SDS011;52783;50.502;8.190;2023-01-20T08:51:39;31.27;;;14.85;;
66012;SDS011;52783;50.502;8.190;2023-01-20T08:54:05;24.98;;;14.68;;
66012;SDS011;52783;50.502;8.190;2023-01-20T08:56:31;24.25;;;13.55;;
66012;SDS011;52783;50.502;8.190;2023-01-20T08:58:58;25.50;;;11.75;;
66012;SDS011;52783;50.502;8.190;2023-01-20T09:01:27;21.50;;;11.13;;
66012;SDS011;52783;50.502;8.190;2023-01-20T09:03:55;29.98;;;13.82;;
66012;SDS011;52783;50.502;8.190;2023-01-20T09:06:21;21.30;;;13.30;;
66012;SDS011;52783;50.502;8.190;2023-01-20T09:08:47;27.95;;;14.18;;
66012;SDS011;52783;50.502;8.190;2023-01-20T09:11:16;22.00;;;13.52;;
66012;SDS011;52783;50.502;8.190;2023-01-20T09:13:43;21.60;;;11.40;;
66012;SDS011;52783;50.502;8.190;2023-01-20T09:16:13;16.88;;;10.20;;
66012;SDS011;52783;50.502;8.190;2023-01-20T09:18:41;18.60;;;8.87;;
66012;SDS011;52783;50.502;8.190;2023-01-20T09:21:07;16.17;;;8.73;;
66012;SDS011;52783;50.502;8.190;2023-01-20T09:23:34;15.70;;;7.97;;
66012;SDS011;52783;50.502;8.190;2023-01-20T09:26:03;11.93;;;7.93;;
66012;SDS011;52783;50.502;8.190;2023-01-20T09:28:30;12.27;;;7.13;;
66012;SDS011;52783;50.502;8.190;2023-01-20T09:30:57;20.70;;;11.13;;
66012;SDS011;52783;50.502;8.190;2023-01-20T09:33:24;20.40;;;10.48;;
66012;SDS011;52783;50.502;8.190;2023-01-20T09:35:53;15.80;;;8.43;;
66012;SDS011;52783;50.502;8.190;2023-01-20T09:38:20;13.60;;;7.32;;
66012;SDS011;52783;50.502;8.190;2023-01-20T09:44:16;17.30;;;8.38;;
66012;SDS011;52783;50.502;8.190;2023-01-20T09:49:39;14.95;;;7.60;;
66012;SDS011;52783;50.502;8.190;2023-01-20T09:52:35;18.13;;;7.47;;
66012;SDS011;52783;50.502;8.190;2023-01-20T09:58:36;10.45;;;6.28;;
66012;SDS011;52783;50.502;8.190;2023-01-20T10:06:53;12.43;;;8.05;;
66012;SDS011;52783;50.502;8.190;2023-01-20T10:09:43;13.98;;;7.63;;
66012;SDS011;52783;50.502;8.190;2023-01-20T10:12:14;16.08;;;7.70;;
66012;SDS011;52783;50.502;8.190;2023-01-20T10:14:56;13.80;;;7.50;;
66012;SDS011;52783;50.502;8.190;2023-01-20T10:18:04;12.68;;;7.18;;
66012;SDS011;52783;50.502;8.190;2023-01-20T10:20:42;17.65;;;7.53;;
66012;SDS011;52783;50.502;8.190;2023-01-20T10:23:13;13.75;;;7.07;;
66012;SDS011;52783;50.502;8.190;2023-01-20T10:26:27;16.05;;;8.02;;
66012;SDS011;52783;50.502;8.190;2023-01-20T10:28:52;12.38;;;7.65;;
66012;SDS011;52783;50.502;8.190;2023-01-20T10:31:24;13.82;;;7.45;;
66012;SDS011;52783;50.502;8.190;2023-01-20T10:33:53;11.82;;;7.47;;
66012;SDS011;52783;50.502;8.190;2023-01-20T10:36:28;14.48;;;7.50;;
66012;SDS011;52783;50.502;8.190;2023-01-20T10:38:57;12.13;;;7.15;;
66012;SDS011;52783;50.502;8.190;2023-01-20T10:41:36;15.98;;;8.40;;
66012;SDS011;52783;50.502;8.190;2023-01-20T10:44:10;15.63;;;7.70;;
66012;SDS011;52783;50.502;8.190;2023-01-20T10:46:52;14.57;;;7.95;;
66012;SDS011;52783;50.502;8.190;2023-01-20T10:55:05;13.02;;;7.18;;
66012;SDS011;52783;50.502;8.190;2023-01-20T10:57:56;11.90;;;6.70;;
66012;SDS011;52783;50.502;8.190;2023-01-20T11:00:29;11.38;;;7.60;;
66012;SDS011;52783;50.502;8.190;2023-01-20T11:02:56;15.60;;;8.65;;
66012;SDS011;52783;50.502;8.190;2023-01-20T11:05:24;18.70;;;8.50;;
66012;SDS011;52783;50.502;8.190;2023-01-20T11:07:53;18.30;;;8.40;;
66012;SDS011;52783;50.502;8.190;2023-01-20T11:10:22;13.13;;;7.70;;
66012;SDS011;52783;50.502;8.190;2023-01-20T11:12:54;16.27;;;9.40;;
66012;SDS011;52783;50.502;8.190;2023-01-20T11:15:26;17.85;;;9.13;;
66012;SDS011;52783;50.502;8.190;2023-01-20T11:20:45;25.30;;;8.95;;
66012;SDS011;52783;50.502;8.190;2023-01-20T11:23:24;20.67;;;9.85;;
66012;SDS011;52783;50.502;8.190;2023-01-20T11:26:03;24.58;;;10.05;;
66012;SDS011;52783;50.502;8.190;2023-01-20T11:28:50;41.13;;;10.57;;
66012;SDS011;52783;50.502;8.190;2023-01-20T11:31:23;29.85;;;9.38;;
66012;SDS011;52783;50.502;8.190;2023-01-20T11:44:41;14.82;;;8.85;;
66012;SDS011;52783;50.502;8.190;2023-01-20T11:47:20;13.48;;;8.15;;
66012;SDS011;52783;50.502;8.190;2023-01-20T11:52:28;23.35;;;9.45;;
66012;SDS011;52783;50.502;8.190;2023-01-20T11:55:15;17.23;;;8.80;;
66012;SDS011;52783;50.502;8.190;2023-01-20T11:57:43;18.42;;;8.80;;
66012;SDS011;52783;50.502;8.190;2023-01-20T12:02:42;21.85;;;9.05;;
66012;SDS011;52783;50.502;8.190;2023-01-20T12:05:16;22.23;;;8.43;;
66012;SDS011;52783;50.502;8.190;2023-01-20T12:07:51;14.52;;;9.07;;
66012;SDS011;52783;50.502;8.190;2023-01-20T12:10:27;18.08;;;8.73;;
66012;SDS011;52783;50.502;8.190;2023-01-20T12:15:36;21.02;;;8.93;;
66012;SDS011;52783;50.502;8.190;2023-01-20T12:21:13;26.02;;;9.75;;
66012;SDS011;52783;50.502;8.190;2023-01-20T12:23:51;16.60;;;9.35;;
66012;SDS011;52783;50.502;8.190;2023-01-20T12:26:22;19.17;;;9.20;;
66012;SDS011;52783;50.502;8.190;2023-01-20T12:31:23;13.63;;;8.32;;
66012;SDS011;52783;50.502;8.190;2023-01-20T12:36:44;14.40;;;8.23;;
66012;SDS011;52783;50.502;8.190;2023-01-20T12:42:23;15.27;;;7.85;;
66012;SDS011;52783;50.502;8.190;2023-01-20T12:53:21;14.52;;;8.65;;
66012;SDS011;52783;50.502;8.190;2023-01-20T13:04:20;13.25;;;8.02;;
66012;SDS011;52783;50.502;8.190;2023-01-20T13:11:58;13.63;;;7.18;;
66012;SDS011;52783;50.502;8.190;2023-01-20T13:19:43;13.82;;;8.07;;
66012;SDS011;52783;50.502;8.190;2023-01-20T13:22:13;13.73;;;8.32;;
66012;SDS011;52783;50.502;8.190;2023-01-20T13:24:43;15.35;;;8.27;;
66012;SDS011;52783;50.502;8.190;2023-01-20T13:27:11;17.58;;;9.52;;
66012;SDS011;52783;50.502;8.190;2023-01-20T13:29:51;14.40;;;8.05;;
66012;SDS011;52783;50.502;8.190;2023-01-20T13:32:26;13.80;;;8.52;;
66012;SDS011;52783;50.502;8.190;2023-01-20T13:34:53;24.65;;;8.85;;
66012;SDS011;52783;50.502;8.190;2023-01-20T13:37:26;17.70;;;7.80;;
66012;SDS011;52783;50.502;8.190;2023-01-20T13:39:54;14.27;;;7.47;;
66012;SDS011;52783;50.502;8.190;2023-01-20T13:47:54;15.52;;;8.02;;
66012;SDS011;52783;50.502;8.190;2023-01-20T13:50:37;13.13;;;7.97;;
66012;SDS011;52783;50.502;8.190;2023-01-20T13:58:21;15.50;;;8.60;;
66012;SDS011;52783;50.502;8.190;2023-01-20T14:01:12;16.27;;;8.98;;
66012;SDS011;52783;50.502;8.190;2023-01-20T14:03:39;18.45;;;8.82;;
66012;SDS011;52783;50.502;8.190;2023-01-20T14:08:39;16.15;;;9.25;;
66012;SDS011;52783;50.502;8.190;2023-01-20T14:11:14;15.98;;;10.20;;
66012;SDS011;52783;50.502;8.190;2023-01-20T14:13:51;17.63;;;9.73;;
66012;SDS011;52783;50.502;8.190;2023-01-20T14:16:22;17.63;;;9.38;;
66012;SDS011;52783;50.502;8.190;2023-01-20T14:18:48;16.30;;;10.00;;
66012;SDS011;52783;50.502;8.190;2023-01-20T14:21:23;18.08;;;10.23;;
66012;SDS011;52783;50.502;8.190;2023-01-20T14:23:50;19.58;;;10.57;;
66012;SDS011;52783;50.502;8.190;2023-01-20T14:26:26;28.00;;;11.38;;
66012;SDS011;52783;50.502;8.190;2023-01-20T14:28:54;19.88;;;10.45;;
66012;SDS011;52783;50.502;8.190;2023-01-20T14:34:00;19.80;;;10.02;;
66012;SDS011;52783;50.502;8.190;2023-01-20T14:36:46;23.35;;;11.52;;
66012;SDS011;52783;50.502;8.190;2023-01-20T14:39:22;22.13;;;11.82;;
66012;SDS011;52783;50.502;8.190;2023-01-20T14:41:51;24.88;;;11.88;;
66012;SDS011;52783;50.502;8.190;2023-01-20T14:44:21;21.13;;;10.90;;
66012;SDS011;52783;50.502;8.190;2023-01-20T14:46:53;26.80;;;13.07;;
66012;SDS011;52783;50.502;8.190;2023-01-20T14:49:34;23.10;;;11.13;;
66012;SDS011;52783;50.502;8.190;2023-01-20T14:52:05;27.40;;;13.35;;
66012;SDS011;52783;50.502;8.190;2023-01-20T15:00:10;35.67;;;16.02;;
66012;SDS011;52783;50.502;8.190;2023-01-20T15:02:54;34.38;;;15.77;;
66012;SDS011;52783;50.502;8.190;2023-01-20T15:05:35;30.35;;;14.68;;
66012;SDS011;52783;50.502;8.190;2023-01-20T15:08:04;29.25;;;14.77;;
66012;SDS011;52783;50.502;8.190;2023-01-20T15:10:36;34.63;;;16.17;;
66012;SDS011;52783;50.502;8.190;2023-01-20T15:13:03;36.80;;;14.25;;
66012;SDS011;52783;50.502;8.190;2023-01-20T15:15:29;32.95;;;16.33;;
66012;SDS011;52783;50.502;8.190;2023-01-20T15:20:43;30.35;;;14.18;;
66012;SDS011;52783;50.502;8.190;2023-01-20T15:23:18;28.58;;;14.18;;
66012;SDS011;52783;50.502;8.190;2023-01-20T15:25:46;39.45;;;16.90;;
66012;SDS011;52783;50.502;8.190;2023-01-20T15:28:26;36.50;;;17.23;;
66012;SDS011;52783;50.502;8.190;2023-01-20T15:30:54;35.67;;;15.32;;
66012;SDS011;52783;50.502;8.190;2023-01-20T15:33:21;29.23;;;14.82;;
66012;SDS011;52783;50.502;8.190;2023-01-20T15:35:55;33.45;;;14.80;;
66012;SDS011;52783;50.502;8.190;2023-01-20T15:38:22;41.05;;;16.30;;
66012;SDS011;52783;50.502;8.190;2023-01-20T15:40:48;33.58;;;15.63;;
66012;SDS011;52783;50.502;8.190;2023-01-20T15:43:15;39.58;;;16.05;;
66012;SDS011;52783;50.502;8.190;2023-01-20T15:45:42;32.80;;;15.02;;
66012;SDS011;52783;50.502;8.190;2023-01-20T15:48:15;30.48;;;15.25;;
66012;SDS011;52783;50.502;8.190;2023-01-20T15:50:45;31.10;;;14.88;;
66012;SDS011;52783;50.502;8.190;2023-01-20T15:53:11;41.67;;;16.73;;
66012;SDS011;52783;50.502;8.190;2023-01-20T15:55:47;32.75;;;15.32;;
66012;SDS011;52783;50.502;8.190;2023-01-20T15:58:21;36.35;;;17.35;;
66012;SDS011;52783;50.502;8.190;2023-01-20T16:00:49;38.08;;;16.02;;
66012;SDS011;52783;50.502;8.190;2023-01-20T16:03:16;31.08;;;14.98;;
66012;SDS011;52783;50.502;8.190;2023-01-20T16:05:42;36.45;;;16.63;;
66012;SDS011;52783;50.502;8.190;2023-01-20T16:08:12;35.05;;;16.25;;
66012;SDS011;52783;50.502;8.190;2023-01-20T16:10:39;44.08;;;20.40;;
66012;SDS011;52783;50.502;8.190;2023-01-20T16:13:04;35.45;;;15.65;;
66012;SDS011;52783;50.502;8.190;2023-01-20T16:15:31;36.65;;;17.00;;
66012;SDS011;52783;50.502;8.190;2023-01-20T16:17:57;40.05;;;15.68;;
66012;SDS011;52783;50.502;8.190;2023-01-20T16:20:23;32.15;;;16.40;;
66012;SDS011;52783;50.502;8.190;2023-01-20T16:22:50;34.78;;;15.27;;
66012;SDS011;52783;50.502;8.190;2023-01-20T16:25:16;38.25;;;19.88;;
66012;SDS011;52783;50.502;8.190;2023-01-20T16:27:42;44.55;;;21.30;;
66012;SDS011;52783;50.502;8.190;2023-01-20T16:30:15;34.70;;;16.00;;
66012;SDS011;52783;50.502;8.190;2023-01-20T16:32:42;43.45;;;17.77;;
66012;SDS011;52783;50.502;8.190;2023-01-20T16:35:14;38.35;;;17.73;;
66012;SDS011;52783;50.502;8.190;2023-01-20T16:37:42;34.63;;;16.65;;
66012;SDS011;52783;50.502;8.190;2023-01-20T16:40:12;46.50;;;21.63;;
66012;SDS011;52783;50.502;8.190;2023-01-20T16:42:41;42.08;;;17.83;;
66012;SDS011;52783;50.502;8.190;2023-01-20T16:47:46;41.03;;;18.50;;
66012;SDS011;52783;50.502;8.190;2023-01-20T16:50:12;38.70;;;17.73;;
66012;SDS011;52783;50.502;8.190;2023-01-20T16:52:37;59.53;;;26.35;;
66012;SDS011;52783;50.502;8.190;2023-01-20T16:55:03;52.67;;;21.75;;